sensor_id;sensor_type;location;lat;lon;timestamp;P1;durP1;ratioP1;P2;durP2;ratioP2
47009;SDS011;59230;54.164;-3.124;2023-06-19T00:02:03;15.27;;;9.75;;
47009;SDS011;59230;54.164;-3.124;2023-06-19T00:04:31;14.43;;;8.95;;
47009;SDS011;59230;54.164;-3.124;2023-06-19T00:07:03;12.73;;;9.57;;
47009;SDS011;59230;54.164;-3.124;2023-06-19T00:09:32;13.80;;;9.57;;
47009;SDS011;59230;54.164;-3.124;2023-06-19T00:12:00;14.13;;;9.85;;
47009;SDS011;59230;54.164;-3.124;2023-06-19T00:14:32;12.60;;;10.32;;
47009;SDS011;59230;54.164;-3.124;2023-06-19T00:17:01;16.33;;;11.27;;
47009;SDS011;59230;54.164;-3.124;2023-06-19T00:19:29;15.88;;;9.98;;
47009;SDS011;59230;54.164;-3.124;2023-06-19T00:22:03;12.57;;;10.57;;
47009;SDS011;59230;54.164;-3.124;2023-06-19T00:24:32;14.32;;;9.45;;
47009;SDS011;59230;54.164;-3.124;2023-06-19T00:27:00;12.70;;;8.85;;
47009;SDS011;59230;54.164;-3.124;2023-06-19T00:29:29;17.25;;;11.20;;
47009;SDS011;59230;54.164;-3.124;2023-06-19T00:32:00;17.40;;;11.43;;
47009;SDS011;59230;54.164;-3.124;2023-06-19T00:34:30;15.27;;;11.07;;
47009;SDS011;59230;54.164;-3.124;2023-06-19T00:36:59;15.10;;;9.77;;
47009;SDS011;59230;54.164;-3.124;2023-06-19T00:39:27;18.45;;;10.77;;
47009;SDS011;59230;54.164;-3.124;2023-06-19T00:41:55;14.60;;;10.77;;
47009;SDS011;59230;54.164;-3.124;2023-06-19T00:44:24;11.43;;;10.23;;
47009;SDS011;59230;54.164;-3.124;2023-06-19T00:47:02;12.70;;;10.20;;
47009;SDS011;59230;54.164;-3.124;2023-06-19T00:49:35;14.63;;;11.15;;
47009;SDS011;59230;54.164;-3.124;2023-06-19T00:52:03;15.77;;;10.70;;
47009;SDS011;59230;54.164;-3.124;2023-06-19T00:54:30;18.33;;;11.75;;
47009;SDS011;59230;54.164;-3.124;2023-06-19T00:56:59;19.60;;;12.95;;
47009;SDS011;59230;54.164;-3.124;2023-06-19T00:59:28;18.15;;;12.50;;
47009;SDS011;59230;54.164;-3.124;2023-06-19T01:01:55;17.65;;;12.15;;
47009;SDS011;59230;54.164;-3.124;2023-06-19T01:04:25;20.08;;;13.73;;
47009;SDS011;59230;54.164;-3.124;2023-06-19T01:06:57;18.88;;;12.88;;
47009;SDS011;59230;54.164;-3.124;2023-06-19T01:12:02;20.48;;;14.20;;
47009;SDS011;59230;54.164;-3.124;2023-06-19T01:14:39;12.80;;;10.38;;
47009;SDS011;59230;54.164;-3.124;2023-06-19T01:17:15;14.45;;;11.63;;
47009;SDS011;59230;54.164;-3.124;2023-06-19T01:19:44;17.92;;;12.10;;
47009;SDS011;59230;54.164;-3.124;2023-06-19T01:22:21;17.58;;;13.40;;
47009;SDS011;59230;54.164;-3.124;2023-06-19T01:24:59;15.88;;;12.73;;
47009;SDS011;59230;54.164;-3.124;2023-06-19T01:27:27;18.75;;;12.77;;
47009;SDS011;59230;54.164;-3.124;2023-06-19T01:30:01;17.05;;;12.30;;
47009;SDS011;59230;54.164;-3.124;2023-06-19T01:32:31;20.00;;;13.27;;
47009;SDS011;59230;54.164;-3.124;2023-06-19T01:35:27;20.25;;;12.88;;
47009;SDS011;59230;54.164;-3.124;2023-06-19T01:37:58;20.23;;;13.80;;
47009;SDS011;59230;54.164;-3.124;2023-06-19T01:40:33;20.55;;;13.82;;
47009;SDS011;59230;54.164;-3.124;2023-06-19T01:43:01;27.67;;;16.50;;
47009;SDS011;59230;54.164;-3.124;2023-06-19T01:45:31;18.38;;;14.15;;
47009;SDS011;59230;54.164;-3.124;2023-06-19T01:47:59;23.75;;;14.23;;
47009;SDS011;59230;54.164;-3.124;2023-06-19T01:50:28;23.90;;;15.00;;
47009;SDS011;59230;54.164;-3.124;2023-06-19T01:52:58;20.77;;;14.98;;
47009;SDS011;59230;54.164;-3.124;2023-06-19T01:55:26;18.73;;;13.23;;
47009;SDS011;59230;54.164;-3.124;2023-06-19T01:57:53;26.35;;;16.00;;
47009;SDS011;59230;54.164;-3.124;2023-06-19T02:00:22;31.90;;;16.58;;
47009;SDS011;59230;54.164;-3.124;2023-06-19T02:02:50;34.42;;;17.50;;
47009;SDS011;59230;54.164;-3.124;2023-06-19T02:05:17;32.72;;;17.60;;
47009;SDS011;59230;54.164;-3.124;2023-06-19T02:07:49;28.45;;;16.73;;
47009;SDS011;59230;54.164;-3.124;2023-06-19T02:10:18;45.55;;;20.70;;
47009;SDS011;59230;54.164;-3.124;2023-06-19T02:12:46;38.13;;;19.17;;
47009;SDS011;59230;54.164;-3.124;2023-06-19T02:15:15;30.50;;;18.35;;
47009;SDS011;59230;54.164;-3.124;2023-06-19T02:17:41;32.22;;;18.05;;
47009;SDS011;59230;54.164;-3.124;2023-06-19T02:20:10;39.28;;;19.67;;
47009;SDS011;59230;54.164;-3.124;2023-06-19T02:22:42;29.83;;;17.92;;
47009;SDS011;59230;54.164;-3.124;2023-06-19T02:25:11;39.88;;;22.55;;
47009;SDS011;59230;54.164;-3.124;2023-06-19T02:27:39;37.75;;;20.50;;
47009;SDS011;59230;54.164;-3.124;2023-06-19T02:30:06;49.78;;;22.83;;
47009;SDS011;59230;54.164;-3.124;2023-06-19T02:32:36;46.72;;;23.67;;
47009;SDS011;59230;54.164;-3.124;2023-06-19T02:35:06;46.15;;;23.13;;
47009;SDS011;59230;54.164;-3.124;2023-06-19T02:37:35;37.37;;;23.87;;
47009;SDS011;59230;54.164;-3.124;2023-06-19T02:40:04;38.92;;;22.35;;
47009;SDS011;59230;54.164;-3.124;2023-06-19T02:42:37;38.27;;;20.80;;
47009;SDS011;59230;54.164;-3.124;2023-06-19T02:45:04;36.17;;;21.83;;
47009;SDS011;59230;54.164;-3.124;2023-06-19T02:47:33;31.80;;;19.38;;
47009;SDS011;59230;54.164;-3.124;2023-06-19T02:49:59;28.02;;;18.10;;
47009;SDS011;59230;54.164;-3.124;2023-06-19T02:52:25;29.35;;;17.98;;
47009;SDS011;59230;54.164;-3.124;2023-06-19T02:54:52;34.88;;;18.10;;
47009;SDS011;59230;54.164;-3.124;2023-06-19T02:57:19;30.85;;;17.27;;
47009;SDS011;59230;54.164;-3.124;2023-06-19T02:59:49;41.72;;;19.40;;
47009;SDS011;59230;54.164;-3.124;2023-06-19T03:02:15;28.42;;;16.92;;
47009;SDS011;59230;54.164;-3.124;2023-06-19T03:04:42;34.95;;;17.55;;
47009;SDS011;59230;54.164;-3.124;2023-06-19T03:07:10;36.08;;;18.27;;
47009;SDS011;59230;54.164;-3.124;2023-06-19T03:09:39;28.33;;;16.13;;
47009;SDS011;59230;54.164;-3.124;2023-06-19T03:12:05;30.40;;;17.88;;
47009;SDS011;59230;54.164;-3.124;2023-06-19T03:14:33;34.38;;;16.95;;
47009;SDS011;59230;54.164;-3.124;2023-06-19T03:16:59;24.20;;;14.70;;
47009;SDS011;59230;54.164;-3.124;2023-06-19T03:19:25;26.48;;;15.98;;
47009;SDS011;59230;54.164;-3.124;2023-06-19T03:21:52;34.78;;;17.25;;
47009;SDS011;59230;54.164;-3.124;2023-06-19T03:24:18;42.97;;;20.25;;
47009;SDS011;59230;54.164;-3.124;2023-06-19T03:26:44;45.00;;;19.15;;
47009;SDS011;59230;54.164;-3.124;2023-06-19T03:29:11;29.73;;;18.17;;
47009;SDS011;59230;54.164;-3.124;2023-06-19T03:31:38;30.70;;;17.95;;
47009;SDS011;59230;54.164;-3.124;2023-06-19T03:34:07;35.85;;;18.48;;
47009;SDS011;59230;54.164;-3.124;2023-06-19T03:36:34;37.38;;;17.48;;
47009;SDS011;59230;54.164;-3.124;2023-06-19T03:39:01;36.15;;;18.98;;
47009;SDS011;59230;54.164;-3.124;2023-06-19T03:41:28;30.25;;;17.65;;
47009;SDS011;59230;54.164;-3.124;2023-06-19T03:43:57;33.35;;;18.55;;
47009;SDS011;59230;54.164;-3.124;2023-06-19T03:46:26;29.65;;;17.50;;
47009;SDS011;59230;54.164;-3.124;2023-06-19T03:48:52;35.97;;;18.95;;
47009;SDS011;59230;54.164;-3.124;2023-06-19T03:51:22;47.70;;;19.58;;
47009;SDS011;59230;54.164;-3.124;2023-06-19T03:53:52;32.50;;;18.88;;
47009;SDS011;59230;54.164;-3.124;2023-06-19T03:56:17;38.55;;;19.00;;
47009;SDS011;59230;54.164;-3.124;2023-06-19T03:58:42;36.58;;;19.92;;
47009;SDS011;59230;54.164;-3.124;2023-06-19T04:01:09;50.35;;;19.40;;
47009;SDS011;59230;54.164;-3.124;2023-06-19T04:03:35;34.30;;;19.15;;
47009;SDS011;59230;54.164;-3.124;2023-06-19T04:06:05;33.38;;;18.13;;
47009;SDS011;59230;54.164;-3.124;2023-06-19T04:08:32;32.45;;;19.13;;
47009;SDS011;59230;54.164;-3.124;2023-06-19T04:11:02;45.25;;;20.98;;
47009;SDS011;59230;54.164;-3.124;2023-06-19T04:13:31;34.65;;;20.52;;
47009;SDS011;59230;54.164;-3.124;2023-06-19T04:15:56;41.45;;;22.60;;
47009;SDS011;59230;54.164;-3.124;2023-06-19T04:18:24;36.50;;;21.58;;
47009;SDS011;59230;54.164;-3.124;2023-06-19T04:20:52;49.00;;;23.10;;
47009;SDS011;59230;54.164;-3.124;2023-06-19T04:23:18;53.80;;;24.45;;
47009;SDS011;59230;54.164;-3.124;2023-06-19T04:25:44;49.70;;;25.30;;
47009;SDS011;59230;54.164;-3.124;2023-06-19T04:28:12;40.40;;;24.30;;
47009;SDS011;59230;54.164;-3.124;2023-06-19T04:30:39;44.45;;;25.52;;
47009;SDS011;59230;54.164;-3.124;2023-06-19T04:33:10;54.05;;;26.23;;
47009;SDS011;59230;54.164;-3.124;2023-06-19T04:35:39;45.55;;;25.83;;
47009;SDS011;59230;54.164;-3.124;2023-06-19T04:38:05;60.38;;;27.80;;
47009;SDS011;59230;54.164;-3.124;2023-06-19T04:40:34;51.78;;;25.65;;
47009;SDS011;59230;54.164;-3.124;2023-06-19T04:43:00;54.53;;;27.30;;
47009;SDS011;59230;54.164;-3.124;2023-06-19T04:45:28;61.80;;;27.40;;
47009;SDS011;59230;54.164;-3.124;2023-06-19T04:47:58;48.60;;;25.83;;
47009;SDS011;59230;54.164;-3.124;2023-06-19T04:50:30;52.47;;;25.38;;
47009;SDS011;59230;54.164;-3.124;2023-06-19T04:52:57;47.40;;;24.38;;
47009;SDS011;59230;54.164;-3.124;2023-06-19T04:55:24;52.63;;;26.00;;
47009;SDS011;59230;54.164;-3.124;2023-06-19T04:57:50;52.60;;;24.52;;
47009;SDS011;59230;54.164;-3.124;2023-06-19T05:00:18;59.80;;;25.23;;
47009;SDS011;59230;54.164;-3.124;2023-06-19T05:02:49;59.28;;;24.63;;
47009;SDS011;59230;54.164;-3.124;2023-06-19T05:05:16;57.78;;;24.30;;
47009;SDS011;59230;54.164;-3.124;2023-06-19T05:07:44;49.25;;;23.50;;
47009;SDS011;59230;54.164;-3.124;2023-06-19T05:10:13;58.53;;;25.00;;
47009;SDS011;59230;54.164;-3.124;2023-06-19T05:12:40;45.15;;;22.00;;
47009;SDS011;59230;54.164;-3.124;2023-06-19T05:15:10;58.88;;;21.85;;
47009;SDS011;59230;54.164;-3.124;2023-06-19T05:17:37;54.70;;;21.80;;
47009;SDS011;59230;54.164;-3.124;2023-06-19T05:20:04;44.17;;;21.23;;
47009;SDS011;59230;54.164;-3.124;2023-06-19T05:22:33;48.10;;;20.77;;
47009;SDS011;59230;54.164;-3.124;2023-06-19T05:25:00;58.38;;;22.10;;
47009;SDS011;59230;54.164;-3.124;2023-06-19T05:27:26;38.90;;;19.60;;
47009;SDS011;59230;54.164;-3.124;2023-06-19T05:29:54;39.70;;;18.38;;
47009;SDS011;59230;54.164;-3.124;2023-06-19T05:32:21;38.97;;;18.45;;
47009;SDS011;59230;54.164;-3.124;2023-06-19T05:34:48;43.42;;;17.17;;
47009;SDS011;59230;54.164;-3.124;2023-06-19T05:37:14;37.47;;;17.17;;
47009;SDS011;59230;54.164;-3.124;2023-06-19T05:39:39;42.88;;;16.55;;
47009;SDS011;59230;54.164;-3.124;2023-06-19T05:42:04;30.88;;;16.10;;
47009;SDS011;59230;54.164;-3.124;2023-06-19T05:44:30;38.17;;;16.33;;
47009;SDS011;59230;54.164;-3.124;2023-06-19T05:46:56;33.00;;;16.10;;
47009;SDS011;59230;54.164;-3.124;2023-06-19T05:49:21;32.72;;;15.27;;
47009;SDS011;59230;54.164;-3.124;2023-06-19T05:51:46;30.73;;;13.50;;
47009;SDS011;59230;54.164;-3.124;2023-06-19T05:54:12;24.00;;;12.77;;
47009;SDS011;59230;54.164;-3.124;2023-06-19T05:56:38;26.27;;;14.00;;
47009;SDS011;59230;54.164;-3.124;2023-06-19T05:59:04;26.35;;;13.57;;
47009;SDS011;59230;54.164;-3.124;2023-06-19T06:01:30;22.77;;;13.32;;
47009;SDS011;59230;54.164;-3.124;2023-06-19T06:03:55;29.20;;;14.43;;
47009;SDS011;59230;54.164;-3.124;2023-06-19T06:06:22;28.40;;;13.48;;
47009;SDS011;59230;54.164;-3.124;2023-06-19T06:08:48;27.85;;;14.00;;
47009;SDS011;59230;54.164;-3.124;2023-06-19T06:11:14;26.20;;;13.55;;
47009;SDS011;59230;54.164;-3.124;2023-06-19T06:13:39;24.58;;;13.63;;
47009;SDS011;59230;54.164;-3.124;2023-06-19T06:16:05;22.00;;;10.60;;
47009;SDS011;59230;54.164;-3.124;2023-06-19T06:18:30;20.88;;;9.13;;
47009;SDS011;59230;54.164;-3.124;2023-06-19T06:20:55;22.30;;;9.20;;
47009;SDS011;59230;54.164;-3.124;2023-06-19T06:23:24;21.50;;;7.72;;
47009;SDS011;59230;54.164;-3.124;2023-06-19T06:25:50;19.50;;;7.93;;
47009;SDS011;59230;54.164;-3.124;2023-06-19T06:28:16;16.65;;;7.80;;
47009;SDS011;59230;54.164;-3.124;2023-06-19T06:30:42;23.60;;;8.60;;
47009;SDS011;59230;54.164;-3.124;2023-06-19T06:33:08;18.00;;;7.10;;
47009;SDS011;59230;54.164;-3.124;2023-06-19T06:35:33;23.35;;;7.82;;
47009;SDS011;59230;54.164;-3.124;2023-06-19T06:38:00;20.60;;;7.43;;
47009;SDS011;59230;54.164;-3.124;2023-06-19T06:40:26;29.55;;;8.48;;
47009;SDS011;59230;54.164;-3.124;2023-06-19T06:42:52;20.98;;;9.05;;
47009;SDS011;59230;54.164;-3.124;2023-06-19T06:45:19;22.20;;;7.47;;
47009;SDS011;59230;54.164;-3.124;2023-06-19T06:47:44;21.13;;;7.80;;
47009;SDS011;59230;54.164;-3.124;2023-06-19T06:50:09;22.40;;;8.00;;
47009;SDS011;59230;54.164;-3.124;2023-06-19T06:52:35;18.45;;;7.60;;
47009;SDS011;59230;54.164;-3.124;2023-06-19T06:55:00;17.42;;;7.18;;
47009;SDS011;59230;54.164;-3.124;2023-06-19T06:57:26;20.02;;;7.68;;
47009;SDS011;59230;54.164;-3.124;2023-06-19T06:59:51;23.60;;;8.43;;
47009;SDS011;59230;54.164;-3.124;2023-06-19T07:02:17;19.83;;;8.80;;
47009;SDS011;59230;54.164;-3.124;2023-06-19T07:04:42;21.95;;;7.70;;
47009;SDS011;59230;54.164;-3.124;2023-06-19T07:07:08;21.42;;;8.00;;
47009;SDS011;59230;54.164;-3.124;2023-06-19T07:09:34;25.45;;;7.55;;
47009;SDS011;59230;54.164;-3.124;2023-06-19T07:11:59;23.77;;;7.45;;
47009;SDS011;59230;54.164;-3.124;2023-06-19T07:14:26;13.55;;;7.15;;
47009;SDS011;59230;54.164;-3.124;2023-06-19T07:16:52;19.83;;;7.10;;
47009;SDS011;59230;54.164;-3.124;2023-06-19T07:19:18;16.77;;;7.57;;
47009;SDS011;59230;54.164;-3.124;2023-06-19T07:21:43;19.63;;;7.15;;
47009;SDS011;59230;54.164;-3.124;2023-06-19T07:24:09;18.75;;;7.43;;
47009;SDS011;59230;54.164;-3.124;2023-06-19T07:26:34;23.20;;;6.57;;
47009;SDS011;59230;54.164;-3.124;2023-06-19T07:29:00;26.25;;;7.88;;
47009;SDS011;59230;54.164;-3.124;2023-06-19T07:31:25;17.45;;;7.13;;
47009;SDS011;59230;54.164;-3.124;2023-06-19T07:33:51;27.08;;;8.35;;
47009;SDS011;59230;54.164;-3.124;2023-06-19T07:36:16;20.13;;;8.07;;
47009;SDS011;59230;54.164;-3.124;2023-06-19T07:38:42;26.15;;;7.72;;
47009;SDS011;59230;54.164;-3.124;2023-06-19T07:41:08;20.27;;;6.82;;
47009;SDS011;59230;54.164;-3.124;2023-06-19T07:43:35;19.67;;;7.28;;
47009;SDS011;59230;54.164;-3.124;2023-06-19T07:46:01;23.63;;;7.72;;
47009;SDS011;59230;54.164;-3.124;2023-06-19T07:48:26;14.95;;;6.95;;
47009;SDS011;59230;54.164;-3.124;2023-06-19T07:50:53;25.95;;;7.80;;
47009;SDS011;59230;54.164;-3.124;2023-06-19T07:53:19;25.05;;;7.50;;
47009;SDS011;59230;54.164;-3.124;2023-06-19T07:55:44;13.68;;;6.47;;
47009;SDS011;59230;54.164;-3.124;2023-06-19T07:58:09;19.20;;;6.40;;
47009;SDS011;59230;54.164;-3.124;2023-06-19T08:00:35;19.30;;;7.22;;
47009;SDS011;59230;54.164;-3.124;2023-06-19T08:03:00;16.13;;;6.43;;
47009;SDS011;59230;54.164;-3.124;2023-06-19T08:05:26;23.08;;;7.10;;
47009;SDS011;59230;54.164;-3.124;2023-06-19T08:07:51;15.10;;;7.18;;
47009;SDS011;59230;54.164;-3.124;2023-06-19T08:10:17;26.20;;;7.13;;
47009;SDS011;59230;54.164;-3.124;2023-06-19T08:12:43;21.75;;;7.55;;
47009;SDS011;59230;54.164;-3.124;2023-06-19T08:15:09;25.98;;;6.97;;
47009;SDS011;59230;54.164;-3.124;2023-06-19T08:17:35;32.63;;;9.35;;
47009;SDS011;59230;54.164;-3.124;2023-06-19T08:20:01;19.02;;;7.15;;
47009;SDS011;59230;54.164;-3.124;2023-06-19T08:22:30;19.73;;;6.93;;
47009;SDS011;59230;54.164;-3.124;2023-06-19T08:24:55;21.98;;;7.35;;
47009;SDS011;59230;54.164;-3.124;2023-06-19T08:27:21;16.67;;;6.57;;
47009;SDS011;59230;54.164;-3.124;2023-06-19T08:29:46;21.85;;;6.72;;
47009;SDS011;59230;54.164;-3.124;2023-06-19T08:32:12;21.60;;;6.82;;
47009;SDS011;59230;54.164;-3.124;2023-06-19T08:34:37;26.25;;;7.07;;
47009;SDS011;59230;54.164;-3.124;2023-06-19T08:37:03;26.17;;;6.88;;
47009;SDS011;59230;54.164;-3.124;2023-06-19T08:39:29;24.63;;;7.05;;
47009;SDS011;59230;54.164;-3.124;2023-06-19T08:41:54;20.98;;;6.57;;
47009;SDS011;59230;54.164;-3.124;2023-06-19T08:44:21;20.40;;;6.63;;
47009;SDS011;59230;54.164;-3.124;2023-06-19T08:46:46;24.52;;;7.20;;
47009;SDS011;59230;54.164;-3.124;2023-06-19T08:49:12;23.33;;;7.63;;
47009;SDS011;59230;54.164;-3.124;2023-06-19T08:51:39;22.17;;;7.63;;
47009;SDS011;59230;54.164;-3.124;2023-06-19T08:54:05;23.70;;;7.15;;
47009;SDS011;59230;54.164;-3.124;2023-06-19T08:56:32;21.25;;;6.97;;
47009;SDS011;59230;54.164;-3.124;2023-06-19T09:01:58;22.75;;;5.85;;
47009;SDS011;59230;54.164;-3.124;2023-06-19T09:04:24;18.20;;;5.63;;
47009;SDS011;59230;54.164;-3.124;2023-06-19T09:09:20;20.00;;;6.10;;
47009;SDS011;59230;54.164;-3.124;2023-06-19T09:12:02;26.88;;;6.57;;
47009;SDS011;59230;54.164;-3.124;2023-06-19T09:14:36;27.02;;;6.60;;
47009;SDS011;59230;54.164;-3.124;2023-06-19T09:17:06;18.48;;;6.65;;
47009;SDS011;59230;54.164;-3.124;2023-06-19T09:19:33;18.25;;;6.32;;
47009;SDS011;59230;54.164;-3.124;2023-06-19T09:22:08;17.27;;;5.97;;
47009;SDS011;59230;54.164;-3.124;2023-06-19T09:24:40;21.48;;;6.25;;
47009;SDS011;59230;54.164;-3.124;2023-06-19T09:27:13;16.05;;;5.75;;
47009;SDS011;59230;54.164;-3.124;2023-06-19T09:29:43;22.98;;;6.25;;
47009;SDS011;59230;54.164;-3.124;2023-06-19T09:34:48;26.92;;;5.72;;
47009;SDS011;59230;54.164;-3.124;2023-06-19T09:37:16;19.38;;;5.65;;
47009;SDS011;59230;54.164;-3.124;2023-06-19T09:39:47;19.60;;;5.40;;
47009;SDS011;59230;54.164;-3.124;2023-06-19T09:42:17;17.30;;;5.90;;
47009;SDS011;59230;54.164;-3.124;2023-06-19T09:44:43;19.08;;;5.05;;
47009;SDS011;59230;54.164;-3.124;2023-06-19T09:47:11;23.17;;;5.35;;
47009;SDS011;59230;54.164;-3.124;2023-06-19T09:49:42;16.55;;;5.25;;
47009;SDS011;59230;54.164;-3.124;2023-06-19T09:52:15;19.73;;;4.53;;
47009;SDS011;59230;54.164;-3.124;2023-06-19T09:54:41;18.80;;;4.75;;
47009;SDS011;59230;54.164;-3.124;2023-06-19T09:57:09;25.88;;;6.45;;
47009;SDS011;59230;54.164;-3.124;2023-06-19T09:59:35;17.88;;;5.00;;
47009;SDS011;59230;54.164;-3.124;2023-06-19T10:02:02;16.20;;;4.68;;
47009;SDS011;59230;54.164;-3.124;2023-06-19T10:04:30;18.40;;;5.32;;
47009;SDS011;59230;54.164;-3.124;2023-06-19T10:06:55;17.02;;;4.75;;
47009;SDS011;59230;54.164;-3.124;2023-06-19T10:09:22;19.77;;;4.93;;
47009;SDS011;59230;54.164;-3.124;2023-06-19T10:11:48;18.83;;;4.78;;
47009;SDS011;59230;54.164;-3.124;2023-06-19T10:14:21;19.15;;;5.18;;
47009;SDS011;59230;54.164;-3.124;2023-06-19T10:16:47;14.18;;;4.10;;
47009;SDS011;59230;54.164;-3.124;2023-06-19T10:19:17;20.80;;;5.38;;
47009;SDS011;59230;54.164;-3.124;2023-06-19T10:21:46;16.13;;;4.60;;
47009;SDS011;59230;54.164;-3.124;2023-06-19T10:24:19;14.38;;;4.10;;
47009;SDS011;59230;54.164;-3.124;2023-06-19T10:27:00;17.88;;;4.78;;
47009;SDS011;59230;54.164;-3.124;2023-06-19T10:29:26;15.93;;;3.72;;
47009;SDS011;59230;54.164;-3.124;2023-06-19T10:32:03;18.35;;;4.13;;
47009;SDS011;59230;54.164;-3.124;2023-06-19T10:34:35;13.60;;;4.28;;
47009;SDS011;59230;54.164;-3.124;2023-06-19T10:37:01;15.40;;;4.45;;
47009;SDS011;59230;54.164;-3.124;2023-06-19T10:39:27;20.52;;;4.68;;
47009;SDS011;59230;54.164;-3.124;2023-06-19T10:42:05;20.58;;;4.38;;
47009;SDS011;59230;54.164;-3.124;2023-06-19T10:44:47;15.13;;;4.07;;
47009;SDS011;59230;54.164;-3.124;2023-06-19T10:50:44;13.35;;;3.33;;
47009;SDS011;59230;54.164;-3.124;2023-06-19T10:56:01;13.45;;;3.97;;
47009;SDS011;59230;54.164;-3.124;2023-06-19T10:58:28;15.80;;;4.10;;
47009;SDS011;59230;54.164;-3.124;2023-06-19T11:00:53;12.65;;;3.63;;
47009;SDS011;59230;54.164;-3.124;2023-06-19T11:03:19;13.48;;;3.45;;
47009;SDS011;59230;54.164;-3.124;2023-06-19T11:05:46;20.20;;;4.30;;
47009;SDS011;59230;54.164;-3.124;2023-06-19T11:08:16;15.63;;;3.72;;
47009;SDS011;59230;54.164;-3.124;2023-06-19T11:10:46;14.68;;;4.07;;
47009;SDS011;59230;54.164;-3.124;2023-06-19T11:13:15;16.73;;;4.05;;
47009;SDS011;59230;54.164;-3.124;2023-06-19T11:15:43;14.88;;;3.42;;
47009;SDS011;59230;54.164;-3.124;2023-06-19T11:18:09;14.32;;;3.92;;
47009;SDS011;59230;54.164;-3.124;2023-06-19T11:20:44;12.63;;;3.67;;
47009;SDS011;59230;54.164;-3.124;2023-06-19T11:23:14;12.85;;;3.80;;
47009;SDS011;59230;54.164;-3.124;2023-06-19T11:25:39;15.48;;;3.83;;
47009;SDS011;59230;54.164;-3.124;2023-06-19T11:28:15;11.45;;;3.45;;
47009;SDS011;59230;54.164;-3.124;2023-06-19T11:30:47;17.25;;;4.03;;
47009;SDS011;59230;54.164;-3.124;2023-06-19T11:33:17;15.32;;;3.50;;
47009;SDS011;59230;54.164;-3.124;2023-06-19T11:35:59;13.60;;;3.95;;
47009;SDS011;59230;54.164;-3.124;2023-06-19T11:38:25;12.48;;;3.53;;
47009;SDS011;59230;54.164;-3.124;2023-06-19T11:40:52;11.07;;;3.45;;
47009;SDS011;59230;54.164;-3.124;2023-06-19T11:45:51;19.27;;;3.92;;
47009;SDS011;59230;54.164;-3.124;2023-06-19T11:48:24;13.93;;;3.65;;
47009;SDS011;59230;54.164;-3.124;2023-06-19T11:50:50;14.10;;;3.20;;
47009;SDS011;59230;54.164;-3.124;2023-06-19T11:53:17;11.30;;;3.13;;
47009;SDS011;59230;54.164;-3.124;2023-06-19T11:55:43;16.10;;;3.58;;
47009;SDS011;59230;54.164;-3.124;2023-06-19T11:58:09;14.07;;;3.33;;
47009;SDS011;59230;54.164;-3.124;2023-06-19T12:00:35;11.57;;;3.15;;
47009;SDS011;59230;54.164;-3.124;2023-06-19T12:03:01;12.50;;;3.10;;
47009;SDS011;59230;54.164;-3.124;2023-06-19T12:05:27;13.93;;;3.30;;
47009;SDS011;59230;54.164;-3.124;2023-06-19T12:07:52;15.05;;;3.63;;
47009;SDS011;59230;54.164;-3.124;2023-06-19T12:10:18;11.60;;;3.17;;
47009;SDS011;59230;54.164;-3.124;2023-06-19T12:12:43;11.45;;;2.80;;
47009;SDS011;59230;54.164;-3.124;2023-06-19T12:15:09;11.30;;;2.97;;
47009;SDS011;59230;54.164;-3.124;2023-06-19T12:17:34;13.35;;;3.25;;
47009;SDS011;59230;54.164;-3.124;2023-06-19T12:20:00;9.85;;;3.15;;
47009;SDS011;59230;54.164;-3.124;2023-06-19T12:22:33;10.00;;;2.63;;
47009;SDS011;59230;54.164;-3.124;2023-06-19T12:24:59;15.48;;;3.05;;
47009;SDS011;59230;54.164;-3.124;2023-06-19T12:27:25;8.32;;;2.70;;
47009;SDS011;59230;54.164;-3.124;2023-06-19T12:29:51;11.07;;;2.45;;
47009;SDS011;59230;54.164;-3.124;2023-06-19T12:35:07;14.75;;;3.10;;
47009;SDS011;59230;54.164;-3.124;2023-06-19T12:37:36;8.40;;;2.55;;
47009;SDS011;59230;54.164;-3.124;2023-06-19T12:40:01;11.13;;;2.63;;
47009;SDS011;59230;54.164;-3.124;2023-06-19T12:42:41;14.63;;;2.90;;
47009;SDS011;59230;54.164;-3.124;2023-06-19T12:46:07;7.78;;;2.22;;
47009;SDS011;59230;54.164;-3.124;2023-06-19T12:48:46;10.40;;;2.75;;
47009;SDS011;59230;54.164;-3.124;2023-06-19T12:51:15;12.43;;;3.08;;
47009;SDS011;59230;54.164;-3.124;2023-06-19T12:53:42;7.93;;;2.85;;
47009;SDS011;59230;54.164;-3.124;2023-06-19T12:56:07;10.30;;;3.03;;
47009;SDS011;59230;54.164;-3.124;2023-06-19T12:58:33;6.90;;;2.47;;
47009;SDS011;59230;54.164;-3.124;2023-06-19T13:00:58;13.50;;;2.75;;
47009;SDS011;59230;54.164;-3.124;2023-06-19T13:03:23;10.13;;;2.80;;
47009;SDS011;59230;54.164;-3.124;2023-06-19T13:05:49;13.43;;;2.80;;
47009;SDS011;59230;54.164;-3.124;2023-06-19T13:08:15;14.63;;;2.88;;
47009;SDS011;59230;54.164;-3.124;2023-06-19T13:10:40;7.85;;;2.65;;
47009;SDS011;59230;54.164;-3.124;2023-06-19T13:13:06;11.48;;;2.25;;
47009;SDS011;59230;54.164;-3.124;2023-06-19T13:15:31;11.07;;;2.78;;
47009;SDS011;59230;54.164;-3.124;2023-06-19T13:18:01;9.98;;;2.40;;
47009;SDS011;59230;54.164;-3.124;2023-06-19T13:20:30;6.55;;;2.10;;
47009;SDS011;59230;54.164;-3.124;2023-06-19T13:22:57;8.15;;;2.55;;
47009;SDS011;59230;54.164;-3.124;2023-06-19T13:25:22;11.65;;;2.80;;
47009;SDS011;59230;54.164;-3.124;2023-06-19T13:27:48;8.32;;;2.88;;
47009;SDS011;59230;54.164;-3.124;2023-06-19T13:30:13;9.57;;;2.40;;
47009;SDS011;59230;54.164;-3.124;2023-06-19T13:32:39;6.90;;;2.50;;
47009;SDS011;59230;54.164;-3.124;2023-06-19T13:35:11;9.27;;;2.47;;
47009;SDS011;59230;54.164;-3.124;2023-06-19T13:37:46;10.90;;;2.17;;
47009;SDS011;59230;54.164;-3.124;2023-06-19T13:40:12;8.85;;;2.53;;
47009;SDS011;59230;54.164;-3.124;2023-06-19T13:42:37;13.82;;;3.03;;
47009;SDS011;59230;54.164;-3.124;2023-06-19T13:45:03;5.70;;;2.15;;
47009;SDS011;59230;54.164;-3.124;2023-06-19T13:47:29;11.38;;;1.95;;
47009;SDS011;59230;54.164;-3.124;2023-06-19T13:49:55;8.20;;;2.15;;
47009;SDS011;59230;54.164;-3.124;2023-06-19T13:52:21;10.43;;;2.25;;
47009;SDS011;59230;54.164;-3.124;2023-06-19T13:54:47;8.65;;;2.15;;
47009;SDS011;59230;54.164;-3.124;2023-06-19T13:57:12;10.35;;;2.53;;
47009;SDS011;59230;54.164;-3.124;2023-06-19T13:59:38;9.10;;;2.78;;
47009;SDS011;59230;54.164;-3.124;2023-06-19T14:02:03;8.35;;;2.22;;
47009;SDS011;59230;54.164;-3.124;2023-06-19T14:04:29;10.05;;;2.35;;
47009;SDS011;59230;54.164;-3.124;2023-06-19T14:06:54;11.30;;;2.08;;
47009;SDS011;59230;54.164;-3.124;2023-06-19T14:09:20;8.13;;;2.28;;
47009;SDS011;59230;54.164;-3.124;2023-06-19T14:11:46;8.50;;;2.25;;
47009;SDS011;59230;54.164;-3.124;2023-06-19T14:14:11;7.43;;;2.00;;
47009;SDS011;59230;54.164;-3.124;2023-06-19T14:16:39;7.65;;;2.08;;
47009;SDS011;59230;54.164;-3.124;2023-06-19T14:19:05;6.60;;;2.13;;
47009;SDS011;59230;54.164;-3.124;2023-06-19T14:21:30;10.50;;;2.10;;
47009;SDS011;59230;54.164;-3.124;2023-06-19T14:23:55;7.95;;;2.00;;
47009;SDS011;59230;54.164;-3.124;2023-06-19T14:26:21;5.82;;;1.95;;
47009;SDS011;59230;54.164;-3.124;2023-06-19T14:28:46;5.97;;;1.83;;
47009;SDS011;59230;54.164;-3.124;2023-06-19T14:34:05;10.40;;;1.70;;
47009;SDS011;59230;54.164;-3.124;2023-06-19T14:36:31;9.65;;;2.13;;
47009;SDS011;59230;54.164;-3.124;2023-06-19T14:38:56;5.95;;;1.77;;
47009;SDS011;59230;54.164;-3.124;2023-06-19T14:41:22;9.07;;;1.98;;
47009;SDS011;59230;54.164;-3.124;2023-06-19T14:46:43;11.52;;;2.13;;
47009;SDS011;59230;54.164;-3.124;2023-06-19T14:49:10;6.10;;;1.75;;
47009;SDS011;59230;54.164;-3.124;2023-06-19T14:51:36;8.45;;;1.92;;